Sand Coulee, Montana
Current Conditions -  °F | °C
As of 6:56 PM on Sunday 21 Dec 2014 (Local Time) from KGFA Reporting Station
Few Clouds Few Clouds  
Wind Chill: 30°   Ceiling: Unl
Heat Index: 39°   Visibility: 10mi
Dew Point: 23°   Wind: 17mph
Humidity: 52%   Direction: 250°WSW
Pressure: 29.66"   Gusts: 25mph
Location:  47.4°N, 111.17°W
Report Text: KGFA 220156Z AUTO 25015G22KT 10SM FEW150 04/M05 A2966 RMK AO2 SLP064 T00411049
Loading
Personal Weather Stations






























Interactive Weather Map New forecast layout! Learn more

10-Day Weather Forecast

Advertisements
Track Severe Weather on mobile